Terminal Aerodrome Forecast
Issued by NWS

Home | Current Version | Previous Version | Text Only | Print | Product List | Glossary On
Versions: 1 2 3 4 5 6 7 8 9 10 11 12 13 14 15 16 17 18
000
FTUS46 KLOX 032337
TAFBUR
TAF
KBUR 032337Z 0400/0424 18009KT P6SM SCT030 SCT150
     FM040300 17005KT P6SM SCT150
     FM040800 16004KT P6SM BKN015
     FM041000 VRB03KT 6SM -DZ BR BKN010 OVC020
     FM041700 16010KT P6SM VCSH SCT012 BKN025=

USA.gov is the U.S. government's official web portal to all federal, state and local government web resources and services.